Time;durP1;ratioP1;P1;durP2;ratioP2;P2;SDS_P1;SDS_P2;PMS_P1;PMS_P2;Temp;Humidity;BMP_temperature;BMP_pressure;BME280_temperature;BME280_humidity;BME280_pressure;Samples;Min_cycle;Max_cycle;Signal;HPM_P1;HPM_P2
2022/10/03 00:02:18;;;;;;;16.58;7.35;;;;;;;8.94;98.76;102491.56;5019126;28;20042;-71
2022/10/03 00:05:08;;;;;;;15.55;7.75;;;;;;;8.95;98.73;102496.00;5028139;28;20154;-73
2022/10/03 00:07:39;;;;;;;13.50;7.95;;;;;;;8.90;98.43;102498.44;5028039;28;20036;-73
2022/10/03 00:10:30;;;;;;;15.32;7.53;;;;;;;8.89;98.55;102492.09;5026488;28;20151;-72
2022/10/03 00:13:21;;;;;;;16.25;7.32;;;;;;;8.88;98.55;102504.09;4999788;28;20542;-74
2022/10/03 00:16:01;;;;;;;18.85;7.10;;;;;;;8.77;98.50;102499.88;5028020;28;20123;-72
2022/10/03 00:18:38;;;;;;;14.55;7.00;;;;;;;8.74;99.35;102496.63;5016662;28;20060;-70
2022/10/03 00:21:31;;;;;;;16.08;6.35;;;;;;;8.73;99.98;102494.94;5012533;28;20042;-73
2022/10/03 00:24:23;;;;;;;16.17;7.45;;;;;;;8.72;100.00;102504.19;5027686;28;20033;-74
2022/10/03 00:26:58;;;;;;;15.63;7.05;;;;;;;8.64;100.00;102499.59;5028172;28;20369;-73
2022/10/03 00:29:39;;;;;;;14.52;6.20;;;;;;;8.62;100.00;102509.88;5028749;28;20486;-72
2022/10/03 00:32:30;;;;;;;11.95;5.82;;;;;;;8.61;100.00;102508.13;5016093;28;20034;-73
2022/10/03 00:35:01;;;;;;;15.77;6.47;;;;;;;8.50;99.69;102514.00;5012383;28;20049;-72
2022/10/03 00:37:39;;;;;;;14.82;6.13;;;;;;;8.45;99.14;102510.94;5027526;28;20037;-72
2022/10/03 00:40:25;;;;;;;14.20;6.23;;;;;;;8.46;99.66;102513.50;5027452;28;20030;-73
2022/10/03 00:43:18;;;;;;;11.38;5.82;;;;;;;8.43;99.49;102511.13;5023073;28;20072;-74
2022/10/03 00:46:07;;;;;;;11.50;5.43;;;;;;;8.42;99.51;102520.38;5016344;28;20068;-71
2022/10/03 00:48:56;;;;;;;13.35;5.60;;;;;;;8.35;99.46;102519.31;5009925;28;20370;-73
2022/10/03 00:51:40;;;;;;;15.48;6.43;;;;;;;8.37;100.00;102525.53;5008585;28;20126;-74
2022/10/03 00:54:32;;;;;;;17.50;6.35;;;;;;;8.37;100.00;102522.78;5026827;28;20116;-70
2022/10/03 00:57:20;;;;;;;12.30;5.72;;;;;;;8.29;99.77;102520.88;5027812;28;20087;-74
2022/10/03 01:00:11;;;;;;;9.88;5.70;;;;;;;8.24;99.53;102530.66;5028784;28;20037;-73
2022/10/03 01:02:59;;;;;;;12.23;6.05;;;;;;;8.22;99.15;102528.09;5014241;28;20060;-73
2022/10/03 01:06:03;;;;;;;15.85;5.57;;;;;;;8.16;99.25;102531.53;5062141;22;20049;-71
2022/10/03 01:09:02;;;;;;;12.85;5.90;;;;;;;8.17;99.89;102546.06;5025767;28;20057;-71
2022/10/03 01:11:37;;;;;;;15.90;6.22;;;;;;;8.12;99.61;102543.00;5025198;28;20049;-72
2022/10/03 01:14:19;;;;;;;12.30;5.57;;;;;;;8.15;99.95;102551.69;5025454;28;20365;-71
2022/10/03 01:17:03;;;;;;;15.02;6.07;;;;;;;8.15;100.00;102554.44;5026128;28;20033;-70
2022/10/03 01:19:52;;;;;;;11.80;6.70;;;;;;;8.20;100.00;102554.75;5024633;28;20383;-70
2022/10/03 01:22:35;;;;;;;14.95;5.65;;;;;;;8.22;100.00;102560.09;5027601;28;20466;-71
2022/10/03 01:25:11;;;;;;;11.95;5.55;;;;;;;8.17;99.79;102560.59;5025978;28;20049;-70
2022/10/03 01:30:41;;;;;;;10.75;5.18;;;;;;;8.15;99.86;102561.78;5026843;28;20723;-71
2022/10/03 01:33:28;;;;;;;15.77;5.43;;;;;;;8.14;99.68;102563.66;5024278;28;20448;-70
2022/10/03 01:36:02;;;;;;;14.77;6.03;;;;;;;8.11;99.80;102563.16;5026034;28;20456;-71
2022/10/03 01:38:57;;;;;;;14.52;6.00;;;;;;;8.09;100.00;102567.94;5025555;28;20124;-71
2022/10/03 01:41:49;;;;;;;16.73;6.95;;;;;;;8.04;99.58;102565.72;5021845;28;20076;-70
2022/10/03 01:44:24;;;;;;;13.15;5.57;;;;;;;8.00;99.84;102561.63;5008969;28;20110;-70
2022/10/03 01:47:17;;;;;;;13.90;5.90;;;;;;;8.03;99.83;102569.50;5026242;28;20148;-71
2022/10/03 01:49:59;;;;;;;14.02;5.90;;;;;;;7.99;100.00;102571.72;4972152;28;20041;-71
2022/10/03 01:52:32;;;;;;;13.85;5.53;;;;;;;8.01;100.00;102561.47;5020221;28;20033;-70
2022/10/03 01:55:13;;;;;;;11.35;5.70;;;;;;;8.03;100.00;102566.75;5024946;28;20504;-69
2022/10/03 01:57:53;;;;;;;15.77;5.53;;;;;;;8.03;100.00;102561.28;5006594;28;20449;-71
2022/10/03 02:00:22;;;;;;;12.85;6.10;;;;;;;8.00;100.00;102559.72;5023478;28;20052;-67
2022/10/03 02:03:05;;;;;;;11.43;6.10;;;;;;;8.01;100.00;102566.09;5026880;28;20638;-71
2022/10/03 02:05:34;;;;;;;13.00;5.88;;;;;;;7.96;100.00;102566.59;5026021;28;20480;-69
2022/10/03 02:08:22;;;;;;;14.25;6.57;;;;;;;7.97;100.00;102562.84;5026023;28;20041;-71
2022/10/03 02:10:58;;;;;;;12.32;5.90;;;;;;;7.91;100.00;102566.25;5025176;28;20136;-67
2022/10/03 02:14:04;;;;;;;12.02;6.63;;;;;;;7.95;100.00;102566.75;5024156;28;20091;-71
2022/10/03 02:16:57;;;;;;;12.57;6.10;;;;;;;7.92;100.00;102567.97;5026906;28;20032;-71
2022/10/03 02:19:33;;;;;;;14.23;6.18;;;;;;;7.84;100.00;102567.94;5024984;28;20033;-70
2022/10/03 02:21:59;;;;;;;13.70;5.82;;;;;;;7.80;100.00;102569.31;5024009;28;20523;-68
2022/10/03 02:24:48;;;;;;;15.48;6.13;;;;;;;7.76;100.00;102582.50;5025401;28;20041;-71
2022/10/03 02:27:53;;;;;;;11.15;5.78;;;;;;;7.79;100.00;102576.66;5022844;28;20021;-71
2022/10/03 02:30:37;;;;;;;14.57;6.15;;;;;;;7.76;100.00;102571.56;5028777;28;20037;-71
2022/10/03 02:33:39;;;;;;;11.80;6.25;;;;;;;7.80;100.00;102577.53;5030677;28;20028;-72
2022/10/03 02:36:43;;;;;;;12.23;5.70;;;;;;;7.78;100.00;102572.22;5029276;28;20380;-72
2022/10/03 02:39:32;;;;;;;13.77;6.20;;;;;;;7.73;100.00;102579.22;4999503;28;20046;-71
2022/10/03 02:42:25;;;;;;;15.05;5.80;;;;;;;7.69;100.00;102573.25;5027883;28;20041;-72
2022/10/03 02:45:08;;;;;;;15.95;5.85;;;;;;;7.59;100.00;102583.47;5020968;28;20060;-71
2022/10/03 02:47:55;;;;;;;14.68;6.20;;;;;;;7.56;100.00;102572.91;5027746;28;20021;-71
2022/10/03 02:50:26;;;;;;;15.23;6.95;;;;;;;7.57;100.00;102576.50;5029275;28;20724;-71
2022/10/03 02:53:29;;;;;;;9.77;6.05;;;;;;;7.59;100.00;102572.53;5028327;28;20068;-68
2022/10/03 02:56:16;;;;;;;13.75;6.05;;;;;;;7.58;100.00;102575.47;5028888;28;20175;-73
2022/10/03 02:59:00;;;;;;;13.60;6.68;;;;;;;7.53;100.00;102571.34;5027512;28;20041;-72
2022/10/03 03:01:40;;;;;;;11.93;7.18;;;;;;;7.54;100.00;102570.31;5029833;28;20107;-72
2022/10/03 03:04:14;;;;;;;16.17;6.93;;;;;;;7.53;100.00;102573.22;5028686;28;20052;-72
2022/10/03 03:06:43;;;;;;;15.10;6.82;;;;;;;7.46;100.00;102570.31;5028290;28;20037;-72
2022/10/03 03:09:28;;;;;;;;;;;;;;;7.57;100.00;102565.56;5030356;28;20048;-71
2022/10/03 03:12:22;;;;;;;14.07;6.05;;;;;;;7.45;100.00;102570.47;5027794;28;20034;-72
2022/10/03 03:15:07;;;;;;;11.07;6.18;;;;;;;7.41;100.00;102577.31;5029571;28;20379;-73
2022/10/03 03:17:50;;;;;;;10.85;6.25;;;;;;;7.43;100.00;102578.84;5027544;28;20040;-72
2022/10/03 03:21:07;;;;;;;13.00;6.35;;;;;;;7.41;100.00;102580.91;5027202;28;20061;-71
2022/10/03 03:23:35;;;;;;;;;;;;;;;7.52;100.00;102587.94;4948689;28;20702;-71
2022/10/03 03:26:16;;;;;;;13.85;6.28;;;;;;;7.45;100.00;102587.75;4948320;28;20395;-68
2022/10/03 03:28:50;;;;;;;13.18;6.20;;;;;;;7.44;100.00;102590.63;4995672;28;20476;-72
2022/10/03 03:31:33;;;;;;;13.57;6.25;;;;;;;7.45;100.00;102587.75;5027613;28;20099;-72
2022/10/03 03:34:21;;;;;;;11.68;5.90;;;;;;;7.46;100.00;102577.66;5028432;28;20040;-71
2022/10/03 03:36:53;;;;;;;11.68;6.50;;;;;;;7.38;100.00;102583.09;5027165;28;20560;-71
2022/10/03 03:39:25;;;;;;;13.63;6.25;;;;;;;7.33;100.00;102590.94;5027509;28;20033;-69
2022/10/03 03:42:11;;;;;;;12.93;6.53;;;;;;;7.27;100.00;102584.28;5025170;28;20061;-71
2022/10/03 03:44:42;;;;;;;11.43;6.13;;;;;;;7.22;100.00;102589.38;5026950;28;20033;-67
2022/10/03 03:47:26;;;;;;;12.82;5.97;;;;;;;7.17;100.00;102589.88;5028318;28;20465;-71
2022/10/03 03:50:22;;;;;;;11.95;6.43;;;;;;;7.14;100.00;102584.72;5026686;28;20039;-67
2022/10/03 03:53:19;;;;;;;11.73;5.68;;;;;;;7.18;100.00;102588.84;5028110;28;20036;-67
2022/10/03 03:55:52;;;;;;;12.25;6.85;;;;;;;7.15;100.00;102580.16;5028443;28;20082;-69
2022/10/03 03:58:32;;;;;;;12.98;7.60;;;;;;;7.14;100.00;102587.47;5028839;28;20037;-71
2022/10/03 04:01:15;;;;;;;15.18;9.27;;;;;;;7.13;100.00;102595.84;5024412;28;20064;-67
2022/10/03 04:03:51;;;;;;;15.75;7.47;;;;;;;7.08;100.00;102592.75;5008744;28;20052;-71
2022/10/03 04:06:35;;;;;;;12.35;7.15;;;;;;;7.10;100.00;102594.31;5008806;28;20045;-71
2022/10/03 04:09:25;;;;;;;12.40;7.80;;;;;;;7.12;100.00;102584.06;5013705;28;20021;-71
2022/10/03 04:12:14;;;;;;;12.23;7.90;;;;;;;7.13;100.00;102590.38;5027021;28;20451;-69
2022/10/03 04:15:01;;;;;;;13.77;7.63;;;;;;;7.10;100.00;102597.03;5028632;28;20044;-71
2022/10/03 04:21:10;;;;;;;12.98;6.50;;;;;;;7.07;100.00;102599.22;5028446;28;20262;-70
2022/10/03 04:24:08;;;;;;;12.98;7.57;;;;;;;7.08;100.00;102596.31;5028724;28;20504;-71
2022/10/03 04:26:50;;;;;;;13.55;7.07;;;;;;;7.05;100.00;102595.81;5010097;28;20132;-69
2022/10/03 04:29:28;;;;;;;12.18;7.47;;;;;;;7.03;100.00;102598.69;5029049;28;20108;-71
2022/10/03 04:32:17;;;;;;;12.87;7.00;;;;;;;7.00;100.00;102601.78;5027958;28;20116;-70
2022/10/03 04:35:23;;;;;;;12.48;6.15;;;;;;;7.02;100.00;102606.03;5028301;28;20383;-69
2022/10/03 04:37:59;;;;;;;11.95;6.72;;;;;;;6.95;100.00;102606.88;4978915;28;20416;-70
2022/10/03 04:40:46;;;;;;;13.13;6.63;;;;;;;6.92;100.00;102602.59;5028336;28;20582;-68
2022/10/03 04:43:36;;;;;;;13.32;6.82;;;;;;;6.97;100.00;102607.56;5026861;28;20367;-71
2022/10/03 04:46:23;;;;;;;13.95;6.53;;;;;;;6.95;100.00;102606.88;5027662;28;20344;-70
2022/10/03 04:48:54;;;;;;;14.05;7.60;;;;;;;6.99;100.00;102613.69;5027924;28;20041;-70
2022/10/03 04:51:27;;;;;;;15.40;6.88;;;;;;;6.96;100.00;102603.13;5027052;28;20158;-68
2022/10/03 04:54:14;;;;;;;16.08;7.40;;;;;;;6.94;100.00;102611.47;5027609;28;20034;-70
2022/10/03 04:56:50;;;;;;;13.75;7.03;;;;;;;6.91;100.00;102609.06;5026413;28;20025;-73
2022/10/03 04:59:26;;;;;;;12.73;6.93;;;;;;;6.88;100.00;102603.06;5028031;28;20042;-72
2022/10/03 05:02:32;;;;;;;14.50;7.30;;;;;;;6.88;100.00;102609.38;5027412;28;20053;-73
2022/10/03 05:05:25;;;;;;;11.68;6.65;;;;;;;6.82;100.00;102609.19;5012578;28;20054;-73
2022/10/03 05:07:57;;;;;;;12.00;6.90;;;;;;;6.78;100.00;102608.66;5027359;28;20026;-73
2022/10/03 05:10:38;;;;;;;14.43;7.50;;;;;;;6.78;100.00;102605.91;5027665;28;20051;-72
2022/10/03 05:13:29;;;;;;;12.63;6.95;;;;;;;6.81;100.00;102613.81;5026054;28;20041;-73
2022/10/03 05:16:22;;;;;;;12.10;6.70;;;;;;;6.78;100.00;102610.53;5026677;28;20044;-71
2022/10/03 05:19:04;;;;;;;13.57;7.03;;;;;;;6.71;100.00;102615.78;5027926;28;20120;-73
2022/10/03 05:21:35;;;;;;;14.48;7.28;;;;;;;6.67;100.00;102611.66;5027056;28;20053;-73
2022/10/03 05:24:14;;;;;;;14.40;8.25;;;;;;;6.64;100.00;102615.59;5026974;28;20029;-72
2022/10/03 05:27:02;;;;;;;15.15;7.60;;;;;;;6.65;100.00;102614.56;5026340;28;20037;-73
2022/10/03 05:29:36;;;;;;;17.25;7.55;;;;;;;6.59;100.00;102617.94;5026956;28;20049;-73
2022/10/03 05:32:20;;;;;;;12.63;7.35;;;;;;;6.61;100.00;102618.63;5027098;28;20029;-72
2022/10/03 05:35:30;;;;;;;14.73;7.93;;;;;;;6.64;100.00;102626.50;5026794;28;20108;-71
2022/10/03 05:38:25;;;;;;;12.27;7.57;;;;;;;6.63;100.00;102629.38;5026360;28;20149;-74
2022/10/03 05:41:10;;;;;;;12.80;7.53;;;;;;;6.61;100.00;102634.16;5025704;28;20143;-73
2022/10/03 05:44:07;;;;;;;12.27;7.45;;;;;;;6.62;100.00;102634.00;5026907;28;20087;-74
2022/10/03 05:47:43;;;;;;;12.95;7.50;;;;;;;6.63;100.00;102638.44;5026487;28;20334;-74
2022/10/03 05:50:28;;;;;;;15.02;7.25;;;;;;;6.64;100.00;102642.00;4996373;28;20033;-69
2022/10/03 05:53:18;;;;;;;13.25;7.82;;;;;;;6.66;100.00;102637.25;5026074;28;20491;-74
2022/10/03 05:55:58;;;;;;;16.40;8.27;;;;;;;6.66;100.00;102648.19;5026401;28;20417;-74
2022/10/03 05:58:53;;;;;;;16.88;8.40;;;;;;;6.70;100.00;102646.84;5026936;28;20027;-72
2022/10/03 06:01:58;;;;;;;15.85;8.60;;;;;;;6.74;100.00;102648.22;5026494;28;20131;-71
2022/10/03 06:04:49;;;;;;;15.23;8.35;;;;;;;6.75;100.00;102650.81;4976172;28;20060;-74
2022/10/03 06:07:57;;;;;;;15.70;7.80;;;;;;;6.78;100.00;102648.75;5026741;28;20361;-74
2022/10/03 06:10:51;;;;;;;16.33;8.80;;;;;;;6.80;100.00;102652.22;5026591;28;20037;-73
2022/10/03 06:13:43;;;;;;;14.90;8.75;;;;;;;6.83;100.00;102654.59;5026744;28;20033;-74
2022/10/03 06:16:26;;;;;;;14.82;9.18;;;;;;;6.81;100.00;102653.91;5026165;28;20591;-74
2022/10/03 06:19:06;;;;;;;15.13;9.80;;;;;;;6.83;100.00;102654.59;5026144;28;20112;-74
2022/10/03 06:22:03;;;;;;;18.08;9.80;;;;;;;6.84;100.00;102656.28;5026055;28;20030;-73
2022/10/03 06:24:50;;;;;;;11.87;8.20;;;;;;;6.86;100.00;102657.88;5025267;28;20038;-70
2022/10/03 06:27:38;;;;;;;13.97;9.20;;;;;;;6.90;100.00;102655.69;5026392;28;20060;-71
2022/10/03 06:30:21;;;;;;;16.80;9.65;;;;;;;6.94;100.00;102670.69;5026680;28;20036;-72
2022/10/03 06:33:01;;;;;;;15.18;9.25;;;;;;;6.99;100.00;102661.03;5027112;28;20372;-72
2022/10/03 06:35:45;;;;;;;17.88;9.82;;;;;;;7.05;100.00;102656.78;5026260;28;20053;-72
2022/10/03 06:38:29;;;;;;;13.68;10.10;;;;;;;7.14;100.00;102665.84;5026769;28;20032;-72
2022/10/03 06:41:53;;;;;;;15.10;9.60;;;;;;;7.20;100.00;102665.22;5024499;28;20034;-72
2022/10/03 06:44:43;;;;;;;18.55;10.68;;;;;;;7.22;100.00;102669.50;5024620;28;20310;-73
2022/10/03 06:47:20;;;;;;;16.08;9.70;;;;;;;7.39;100.00;102672.28;5024448;28;20087;-71
2022/10/03 06:50:07;;;;;;;15.47;9.83;;;;;;;7.46;100.00;102665.16;5024746;28;20049;-72
2022/10/03 06:53:07;;;;;;;15.88;9.60;;;;;;;7.55;100.00;102666.88;5025240;28;20038;-70
2022/10/03 06:55:51;;;;;;;16.75;9.35;;;;;;;7.60;100.00;102669.09;5023853;28;20396;-72
2022/10/03 06:58:38;;;;;;;19.83;9.60;;;;;;;7.70;100.00;102673.41;5026790;28;20041;-71
2022/10/03 07:01:49;;;;;;;14.35;8.98;;;;;;;7.76;100.00;102667.28;5026292;28;20380;-73
2022/10/03 07:04:17;;;;;;;19.20;10.43;;;;;;;7.91;100.00;102672.09;5026685;28;20042;-72
2022/10/03 07:07:04;;;;;;;;;;;;;;;7.99;100.00;102672.09;5026713;28;20049;-72
2022/10/03 07:10:04;;;;;;;16.60;9.52;;;;;;;8.10;100.00;102679.97;5026737;28;20346;-70
2022/10/03 07:13:05;;;;;;;15.02;10.13;;;;;;;8.16;100.00;102684.78;5025767;28;20034;-72
2022/10/03 07:15:57;;;;;;;18.60;10.30;;;;;;;8.25;100.00;102678.28;5029866;28;20082;-73
2022/10/03 07:19:00;;;;;;;18.38;10.52;;;;;;;8.43;100.00;102683.63;5030050;28;20036;-71
2022/10/03 07:21:35;;;;;;;19.20;11.82;;;;;;;8.60;100.00;102684.47;5029281;28;20542;-73
2022/10/03 07:24:30;;;;;;;19.60;11.38;;;;;;;8.70;100.00;102681.53;5029834;28;20044;-72
2022/10/03 07:27:04;;;;;;;17.98;11.23;;;;;;;8.81;100.00;102679.28;5028681;28;20364;-73
2022/10/03 07:29:55;;;;;;;21.02;11.20;;;;;;;8.96;100.00;102676.69;5029686;28;20565;-73
2022/10/03 07:32:44;;;;;;;19.23;11.63;;;;;;;9.08;100.00;102674.44;5029780;28;20036;-73
2022/10/03 07:38:58;;;;;;;23.40;10.82;;;;;;;9.22;100.00;102687.41;5025253;28;20099;-71
2022/10/03 07:41:42;;;;;;;21.90;10.25;;;;;;;9.32;100.00;102687.19;5032424;28;20021;-72
2022/10/03 07:44:35;;;;;;;18.25;10.02;;;;;;;9.46;100.00;102689.19;5021804;28;20508;-74
2022/10/03 07:47:37;;;;;;;15.50;10.30;;;;;;;9.57;100.00;102696.16;5016861;28;22008;-75
2022/10/03 07:50:21;;;;;;;16.50;9.40;;;;;;;9.63;100.00;102700.97;5013162;28;20573;-73
2022/10/03 07:53:14;;;;;;;16.02;9.25;;;;;;;9.79;100.00;102700.88;5022101;28;20144;-73
2022/10/03 07:56:06;;;;;;;16.42;8.88;;;;;;;9.97;100.00;102707.97;5018116;28;20029;-73
2022/10/03 07:58:47;;;;;;;12.15;9.18;;;;;;;10.18;100.00;102710.91;5025234;28;20376;-74
2022/10/03 08:01:36;;;;;;;17.40;9.57;;;;;;;10.38;100.00;102720.38;5007551;28;20021;-75
2022/10/03 08:04:49;;;;;;;15.23;8.82;;;;;;;10.65;100.00;102718.97;5008538;28;20116;-73
2022/10/03 08:07:51;;;;;;;15.88;8.63;;;;;;;10.98;100.00;102720.56;5012695;28;20120;-75
2022/10/03 08:10:25;;;;;;;17.25;9.23;;;;;;;11.27;100.00;102709.56;5027187;28;20069;-71
2022/10/03 08:13:04;;;;;;;18.25;8.50;;;;;;;11.68;100.00;102709.06;5028367;28;20042;-70
2022/10/03 08:16:07;;;;;;;15.80;8.32;;;;;;;12.38;100.00;102704.78;5028120;28;20036;-75
2022/10/03 08:18:48;;;;;;;14.02;7.47;;;;;;;12.83;96.83;102703.50;5024778;28;20061;-71
2022/10/03 08:21:36;;;;;;;11.82;6.88;;;;;;;13.13;95.01;102708.78;5016293;28;20037;-79
2022/10/03 08:24:19;;;;;;;14.85;6.55;;;;;;;13.28;93.64;102695.75;5020381;28;20109;-76
2022/10/03 08:27:07;;;;;;;12.55;5.85;;;;;;;13.23;93.18;102699.13;5021096;28;20052;-76
2022/10/03 08:29:59;;;;;;;11.52;5.82;;;;;;;13.27;93.52;102698.69;5024603;28;20062;-79
2022/10/03 08:32:41;;;;;;;13.52;6.55;;;;;;;13.36;93.28;102701.09;4993796;28;20041;-74
2022/10/03 08:35:17;;;;;;;12.02;5.78;;;;;;;13.38;93.08;102699.00;5022977;28;20041;-80
2022/10/03 08:38:07;;;;;;;13.40;5.82;;;;;;;13.40;93.71;102698.78;5018048;28;20033;-81
2022/10/03 08:41:14;;;;;;;10.75;5.30;;;;;;;13.84;91.82;102708.53;5019279;28;20043;-70
2022/10/03 08:44:08;;;;;;;12.25;5.45;;;;;;;14.05;89.00;102710.31;5028038;28;20037;-74
2022/10/03 08:47:10;;;;;;;14.02;5.28;;;;;;;14.09;92.09;102709.69;5025682;28;20030;-78
2022/10/03 08:49:39;;;;;;;13.85;5.20;;;;;;;14.21;89.21;102712.69;5024528;28;20472;-80
2022/10/03 08:52:23;;;;;;;11.75;5.00;;;;;;;14.44;88.65;102712.28;5022937;28;20051;-73
2022/10/03 08:55:34;;;;;;;13.00;4.82;;;;;;;14.74;87.29;102712.75;5024362;28;20048;-77
2022/10/03 08:58:50;;;;;;;11.32;4.88;;;;;;;15.77;85.04;102713.84;5016627;28;20047;-74
2022/10/03 09:01:34;;;;;;;10.63;4.05;;;;;;;16.13;79.46;102709.59;4991270;28;20055;-79
2022/10/03 09:04:21;;;;;;;10.80;4.32;;;;;;;16.51;77.82;102708.69;5022257;28;20046;-80
2022/10/03 09:07:11;;;;;;;9.82;3.72;;;;;;;17.15;77.28;102715.00;5017561;28;20038;-78
2022/10/03 09:09:51;;;;;;;8.15;3.10;;;;;;;17.46;73.52;102706.53;5025841;28;20039;-79
2022/10/03 09:12:41;;;;;;;11.80;3.03;;;;;;;18.32;70.91;102701.78;5025199;28;20022;-78
2022/10/03 09:15:34;;;;;;;6.95;3.20;;;;;;;20.78;66.88;102701.31;5026815;28;20033;-74
2022/10/03 09:18:40;;;;;;;8.63;2.70;;;;;;;23.21;59.16;102703.56;5024608;28;20041;-73
2022/10/03 09:21:47;;;;;;;6.57;2.60;;;;;;;23.11;58.73;102704.34;5021838;28;20038;-71
2022/10/03 09:24:44;;;;;;;9.27;3.20;;;;;;;21.66;60.24;102707.94;5024878;28;20528;-73
2022/10/03 09:27:13;;;;;;;7.97;2.47;;;;;;;21.12;56.10;102712.47;5012205;28;20448;-79
2022/10/03 09:29:54;;;;;;;7.75;2.70;;;;;;;21.09;58.62;102697.06;5023173;28;20041;-75
2022/10/03 09:32:37;;;;;;;10.77;2.60;;;;;;;21.77;59.12;102698.56;5023617;28;20040;-72
2022/10/03 09:35:02;;;;;;;11.85;2.50;;;;;;;22.34;52.55;102696.41;5019978;28;20531;-73
2022/10/03 09:38:00;;;;;;;8.40;2.00;;;;;;;23.26;56.17;102687.63;5025631;28;20034;-75
2022/10/03 09:40:44;;;;;;;;;;;;;;;23.72;57.99;102695.44;5017262;28;20041;-78
2022/10/03 09:43:47;;;;;;;6.30;2.17;;;;;;;24.22;53.82;102689.13;5014034;28;19939;-78
2022/10/03 09:46:29;;;;;;;9.02;2.10;;;;;;;24.63;50.91;102689.19;5021086;28;20062;-77
2022/10/03 09:49:23;;;;;;;10.90;2.47;;;;;;;23.99;46.07;102684.88;5022219;28;20083;-76
2022/10/03 09:52:11;;;;;;;7.43;1.92;;;;;;;23.65;49.88;102683.66;4978905;28;20065;-73
2022/10/03 09:54:49;;;;;;;10.40;2.20;;;;;;;24.29;48.13;102684.09;5023866;28;20060;-78
2022/10/03 09:57:57;;;;;;;7.80;1.92;;;;;;;24.08;48.14;102682.41;5023633;28;20356;-77
2022/10/03 10:00:48;;;;;;;7.90;2.40;;;;;;;23.65;48.96;102678.88;5019201;28;20037;-78
2022/10/03 10:03:48;;;;;;;6.90;2.08;;;;;;;23.40;49.19;102684.34;5023715;28;20047;-78
2022/10/03 10:06:13;;;;;;;11.20;2.30;;;;;;;23.23;47.40;102684.53;5023458;28;20063;-72
2022/10/03 10:09:00;;;;;;;8.03;2.00;;;;;;;24.02;48.78;102677.88;5023425;28;20037;-80
2022/10/03 10:11:40;;;;;;;7.05;2.10;;;;;;;23.98;46.76;102679.56;5020949;28;20639;-73
2022/10/03 10:14:25;;;;;;;8.95;1.80;;;;;;;23.08;46.38;102678.84;5021259;28;20124;-79
2022/10/03 10:17:15;;;;;;;6.20;2.10;;;;;;;23.40;49.64;102679.56;5024049;28;20113;-77
2022/10/03 10:19:55;;;;;;;7.22;1.70;;;;;;;24.21;47.75;102678.19;5025853;28;20038;-76
2022/10/03 10:22:46;;;;;;;8.82;1.90;;;;;;;25.28;44.97;102686.59;5024404;28;20041;-78
2022/10/03 10:25:33;;;;;;;8.02;1.80;;;;;;;25.63;40.97;102682.81;5019841;28;20032;-78
2022/10/03 10:28:33;;;;;;;9.90;2.03;;;;;;;26.50;43.44;102673.88;5026393;28;20531;-76
2022/10/03 10:31:59;;;;;;;5.55;1.58;;;;;;;27.29;41.37;102672.56;5025975;28;20030;-77
2022/10/03 10:34:59;;;;;;;8.65;1.80;;;;;;;27.41;40.48;102675.78;4941020;29;20482;-77
2022/10/03 10:37:39;;;;;;;7.72;1.90;;;;;;;28.31;37.74;102671.16;5026282;28;20113;-73
2022/10/03 10:40:29;;;;;;;9.38;2.13;;;;;;;27.63;38.01;102672.44;5025671;28;20030;-78
2022/10/03 10:43:22;;;;;;;7.90;1.80;;;;;;;27.18;39.11;102675.81;5023398;28;20033;-77
2022/10/03 10:46:16;;;;;;;6.75;1.88;;;;;;;28.00;39.19;102670.81;5026153;28;20048;-74
2022/10/03 10:49:15;;;;;;;6.53;1.85;;;;;;;28.60;37.62;102673.00;5007485;28;20462;-75
2022/10/03 10:52:37;;;;;;;6.40;1.90;;;;;;;29.04;37.98;102671.66;4993500;28;20037;-70
2022/10/03 10:55:33;;;;;;;10.30;2.38;;;;;;;28.78;36.20;102669.25;5020091;28;20121;-72
2022/10/03 10:58:10;;;;;;;7.40;2.28;;;;;;;27.51;36.12;102671.16;5010582;28;20095;-72
2022/10/03 11:01:10;;;;;;;5.68;1.70;;;;;;;26.93;38.94;102665.59;5011555;28;20022;-71
2022/10/03 11:04:06;;;;;;;7.10;1.70;;;;;;;25.12;40.89;102674.56;5029957;28;20049;-74
2022/10/03 11:07:10;;;;;;;8.63;2.28;;;;;;;25.92;41.90;102666.09;5030179;28;20103;-74
2022/10/03 11:09:57;;;;;;;6.75;1.30;;;;;;;27.20;38.70;102668.72;5030326;28;20080;-69
2022/10/03 11:12:55;;;;;;;7.60;1.90;;;;;;;28.11;37.62;102663.03;5027256;28;20037;-74
2022/10/03 11:15:42;;;;;;;9.23;1.60;;;;;;;26.64;38.01;102657.97;5030167;28;20025;-75
2022/10/03 11:18:41;;;;;;;6.35;1.50;;;;;;;26.22;39.19;102659.44;5030249;28;20433;-76
2022/10/03 11:21:34;;;;;;;8.50;1.83;;;;;;;25.41;40.69;102671.94;5029023;28;20472;-76
2022/10/03 11:24:52;;;;;;;6.50;1.80;;;;;;;24.31;43.31;102652.94;5028993;28;20076;-74
2022/10/03 11:27:17;;;;;;;;;;;;;;;23.25;46.15;102657.06;4994825;28;20049;-70
2022/10/03 11:30:20;;;;;;;9.50;2.17;;;;;;;21.65;48.44;102655.09;4992448;28;19913;-74
2022/10/03 11:32:48;;;;;;;7.45;2.22;;;;;;;22.14;47.58;102644.72;5023776;28;20045;-72
2022/10/03 11:35:33;;;;;;;;;;;;;;;24.54;45.84;102649.59;5029886;28;20056;-72
2022/10/03 11:38:12;;;;;;;7.90;2.22;;;;;;;24.01;43.44;102648.94;5029775;28;19924;-72
2022/10/03 11:41:20;;;;;;;8.00;1.80;;;;;;;22.59;47.18;102656.59;5028179;28;20037;-74
2022/10/03 11:44:06;;;;;;;10.85;2.22;;;;;;;21.30;49.05;102653.53;5010078;28;20510;-74
2022/10/03 11:47:01;;;;;;;8.05;1.73;;;;;;;20.69;50.76;102661.81;5009791;28;20030;-74
2022/10/03 11:50:10;;;;;;;8.27;2.45;;;;;;;20.86;52.59;102647.81;5018397;28;20392;-75
2022/10/03 11:52:47;;;;;;;10.20;2.05;;;;;;;21.65;49.54;102644.75;5028791;28;20041;-75
2022/10/03 11:55:37;;;;;;;11.13;2.13;;;;;;;21.67;50.53;102648.09;5028270;28;20045;-73
2022/10/03 11:58:09;;;;;;;6.50;1.70;;;;;;;21.27;49.31;102654.00;5029361;28;20376;-75
2022/10/03 12:00:38;;;;;;;8.85;2.25;;;;;;;21.12;50.25;102651.00;5026962;28;20037;-71
2022/10/03 12:03:18;;;;;;;9.90;1.83;;;;;;;21.13;51.48;102650.72;5028232;28;20029;-73
2022/10/03 12:09:05;;;;;;;9.82;2.17;;;;;;;20.49;50.13;102652.25;5029252;28;20103;-74
2022/10/03 12:11:53;;;;;;;7.32;1.65;;;;;;;19.98;52.68;102648.53;5027517;28;20068;-72
2022/10/03 12:14:34;;;;;;;10.30;2.10;;;;;;;19.54;53.74;102650.97;5029569;28;20025;-70
2022/10/03 12:17:14;;;;;;;9.48;2.00;;;;;;;19.05;56.10;102654.06;5027605;28;20132;-72
2022/10/03 12:19:58;;;;;;;8.73;2.22;;;;;;;18.79;57.89;102651.78;5018615;28;20033;-74
2022/10/03 12:22:57;;;;;;;10.18;1.85;;;;;;;18.54;60.28;102655.59;5028756;28;20033;-71
2022/10/03 12:25:29;;;;;;;9.40;2.20;;;;;;;18.42;59.54;102641.69;5027527;28;20104;-74
2022/10/03 12:28:23;;;;;;;9.00;2.10;;;;;;;18.51;58.83;102635.78;5027924;28;20038;-73
2022/10/03 12:30:54;;;;;;;7.72;1.75;;;;;;;18.66;60.03;102637.00;5028771;28;20108;-71
2022/10/03 12:33:50;;;;;;;8.25;2.03;;;;;;;19.03;59.45;102634.00;5028117;28;20372;-73
2022/10/03 12:36:23;;;;;;;9.10;2.00;;;;;;;19.22;55.92;102622.72;5024865;28;20061;-74
2022/10/03 12:39:00;;;;;;;9.52;2.00;;;;;;;19.50;55.03;102621.88;5025819;28;20072;-73
2022/10/03 12:41:44;;;;;;;8.70;1.80;;;;;;;19.55;57.54;102628.41;5027806;28;20113;-73
2022/10/03 12:44:45;;;;;;;8.25;2.13;;;;;;;19.69;57.65;102624.28;5024554;28;20086;-73
2022/10/03 12:47:25;;;;;;;7.72;1.98;;;;;;;19.82;55.08;102612.00;5017992;28;20040;-74
2022/10/03 12:50:21;;;;;;;7.20;1.80;;;;;;;19.68;54.99;102624.53;5028257;28;20055;-74
2022/10/03 12:53:08;;;;;;;11.10;2.20;;;;;;;19.43;54.34;102617.31;5028377;28;20029;-74
2022/10/03 12:55:39;;;;;;;12.68;2.50;;;;;;;19.30;54.06;102619.53;5025510;28;20041;-73
2022/10/03 12:58:34;;;;;;;9.77;2.00;;;;;;;19.48;56.76;102618.50;5027376;28;20120;-72
2022/10/03 13:01:15;;;;;;;10.60;2.38;;;;;;;19.58;56.23;102622.34;5024651;28;20048;-71
2022/10/03 13:03:52;;;;;;;12.90;2.70;;;;;;;19.56;56.59;102610.59;5025710;28;20025;-75
2022/10/03 13:06:38;;;;;;;9.68;2.10;;;;;;;19.53;54.53;102611.09;5022568;28;20069;-75
2022/10/03 13:09:20;;;;;;;13.43;2.25;;;;;;;19.60;57.83;102605.41;5025399;28;20025;-74